createdAt,value
2022-10-24T00:01:20.521Z,2.80
2022-10-24T00:04:22.163Z,2.70
2022-10-24T00:07:23.795Z,2.37
2022-10-24T00:10:25.393Z,2.50
2022-10-24T00:13:27.079Z,3.07
2022-10-24T00:16:28.721Z,3.07
2022-10-24T00:19:30.508Z,3.00
2022-10-24T00:22:32.118Z,2.80
2022-10-24T00:25:33.673Z,2.67
2022-10-24T00:28:35.941Z,2.87
2022-10-24T00:31:37.782Z,2.50
2022-10-24T00:34:39.310Z,2.43
2022-10-24T00:37:41.065Z,2.63
2022-10-24T00:40:42.820Z,2.50
2022-10-24T00:43:44.791Z,2.50
2022-10-24T00:46:52.524Z,2.77
2022-10-24T00:50:00.872Z,2.40
2022-10-24T00:53:02.416Z,2.30
2022-10-24T00:56:05.414Z,2.40
2022-10-24T00:59:08.450Z,2.40
2022-10-24T01:02:10.133Z,2.20
2022-10-24T01:05:11.943Z,2.20
2022-10-24T01:08:19.395Z,2.30
2022-10-24T01:11:39.477Z,2.07
2022-10-24T01:14:59.654Z,2.00
2022-10-24T01:18:11.259Z,2.00
2022-10-24T01:21:24.626Z,2.03
2022-10-24T01:25:04.520Z,2.10
2022-10-24T01:28:14.008Z,2.17
2022-10-24T01:31:28.061Z,1.80
2022-10-24T01:34:32.789Z,2.17
2022-10-24T01:37:39.738Z,1.97
2022-10-24T01:40:45.400Z,1.90
2022-10-24T01:43:55.186Z,2.33
2022-10-24T01:46:59.376Z,2.30
2022-10-24T01:50:02.931Z,2.20
2022-10-24T01:53:04.885Z,2.03
2022-10-24T01:56:06.910Z,2.20
2022-10-24T01:59:28.580Z,2.57
2022-10-24T02:02:33.872Z,1.93
2022-10-24T02:05:45.109Z,2.37
2022-10-24T02:08:48.930Z,2.27
2022-10-24T02:11:51.889Z,2.40
2022-10-24T02:14:56.329Z,2.20
2022-10-24T02:17:58.101Z,2.40
2022-10-24T02:21:06.376Z,3.70
2022-10-24T02:24:16.145Z,3.13
2022-10-24T02:27:21.209Z,3.30
2022-10-24T02:30:24.156Z,3.60
2022-10-24T02:33:27.014Z,3.87
2022-10-24T02:36:29.754Z,3.10
2022-10-24T02:39:31.936Z,2.70
2022-10-24T02:42:34.373Z,3.07
2022-10-24T02:45:36.282Z,2.37
2022-10-24T02:48:41.516Z,2.53
2022-10-24T02:51:44.449Z,3.03
2022-10-24T02:54:46.213Z,2.40
2022-10-24T02:57:47.833Z,2.30
2022-10-24T03:00:49.653Z,2.17
2022-10-24T03:03:51.273Z,2.10
2022-10-24T03:06:54.016Z,2.00
2022-10-24T03:09:55.644Z,2.07
2022-10-24T03:12:57.353Z,2.10
2022-10-24T03:15:58.915Z,6.20
2022-10-24T03:19:00.516Z,3.60
2022-10-24T03:22:02.089Z,2.97
2022-10-24T03:25:03.918Z,2.60
2022-10-24T03:28:05.486Z,3.40
2022-10-24T03:31:07.300Z,3.03
2022-10-24T03:34:08.877Z,3.53
2022-10-24T03:37:10.426Z,2.63
2022-10-24T03:40:12.294Z,3.63
2022-10-24T03:43:13.913Z,3.90
2022-10-24T03:46:15.464Z,3.20
2022-10-24T03:49:17.051Z,4.83
2022-10-24T03:52:18.958Z,4.63
2022-10-24T03:55:20.518Z,3.27
2022-10-24T03:58:22.106Z,4.53
2022-10-24T04:01:24.542Z,2.50
2022-10-24T04:04:26.192Z,4.00
2022-10-24T04:07:27.757Z,2.37
2022-10-24T04:10:29.324Z,3.80
2022-10-24T04:13:30.879Z,4.70
2022-10-24T04:16:34.873Z,4.80
2022-10-24T04:19:36.552Z,4.93
2022-10-24T04:22:38.169Z,2.47
2022-10-24T04:25:40.789Z,2.93
2022-10-24T04:28:42.420Z,2.87
2022-10-24T04:31:43.981Z,2.20
2022-10-24T04:34:45.570Z,2.00
2022-10-24T04:37:47.193Z,2.33
2022-10-24T04:40:49.910Z,2.20
2022-10-24T04:43:52.354Z,2.20
2022-10-24T04:46:53.944Z,1.80
2022-10-24T04:49:55.489Z,2.03
2022-10-24T04:52:57.106Z,2.03
2022-10-24T04:55:58.675Z,2.43
2022-10-24T04:59:00.581Z,2.40
2022-10-24T05:02:02.283Z,2.37
2022-10-24T05:05:04.463Z,3.07
2022-10-24T05:08:06.012Z,2.97
2022-10-24T05:11:09.830Z,3.33
2022-10-24T05:14:11.476Z,2.53
2022-10-24T05:17:13.654Z,4.40
2022-10-24T05:20:15.199Z,3.60
2022-10-24T05:23:16.790Z,3.10
2022-10-24T05:26:18.429Z,5.53
2022-10-24T05:29:20.041Z,5.13
2022-10-24T05:32:22.321Z,5.43
2022-10-24T05:35:23.845Z,7.10
2022-10-24T05:38:25.431Z,5.60
2022-10-24T05:41:26.986Z,6.87
2022-10-24T05:44:28.661Z,7.03
2022-10-24T05:47:30.202Z,6.60
2022-10-24T05:50:31.893Z,5.90
2022-10-24T05:53:33.500Z,4.20
2022-10-24T05:56:35.142Z,4.27
2022-10-24T05:59:36.708Z,4.90
2022-10-24T06:02:38.866Z,3.53
2022-10-24T06:05:40.648Z,3.10
2022-10-24T06:08:42.288Z,3.43
2022-10-24T06:11:43.870Z,5.47
2022-10-24T06:14:45.484Z,3.70
2022-10-24T06:17:47.308Z,3.90
2022-10-24T06:20:51.680Z,4.40
2022-10-24T06:23:55.814Z,4.60
2022-10-24T06:26:57.443Z,4.70
2022-10-24T06:29:59.001Z,5.30
2022-10-24T06:33:01.398Z,6.30
2022-10-24T06:36:05.586Z,6.57
2022-10-24T06:39:07.177Z,6.40
2022-10-24T06:42:08.899Z,4.90
2022-10-24T06:45:11.361Z,4.63
2022-10-24T06:48:12.903Z,4.73
2022-10-24T06:51:15.065Z,4.80
2022-10-24T06:54:16.809Z,4.03
2022-10-24T06:57:18.487Z,4.47
2022-10-24T07:00:20.239Z,4.63
2022-10-24T07:03:21.882Z,4.37
2022-10-24T07:06:24.777Z,4.00
2022-10-24T07:09:26.454Z,4.90
2022-10-24T07:12:28.023Z,4.40
2022-10-24T07:15:29.590Z,4.20
2022-10-24T07:18:31.493Z,4.63
2022-10-24T07:21:33.364Z,4.30
2022-10-24T07:24:35.074Z,5.27
2022-10-24T07:27:36.714Z,4.30
2022-10-24T07:30:39.318Z,6.37
2022-10-24T07:33:41.162Z,4.57
2022-10-24T07:36:43.739Z,5.10
2022-10-24T07:39:46.708Z,5.85
2022-10-24T07:42:48.746Z,5.65
2022-10-24T07:45:52.084Z,5.43
2022-10-24T07:48:54.085Z,5.00
2022-10-24T07:51:55.767Z,5.28
2022-10-24T07:54:58.152Z,4.53
2022-10-24T07:57:59.694Z,6.95
2022-10-24T08:01:08.910Z,4.72
2022-10-24T08:04:11.175Z,5.50
2022-10-24T08:07:15.706Z,5.30
2022-10-24T08:10:17.399Z,6.40
2022-10-24T08:13:19.034Z,13.82
2022-10-24T08:16:21.485Z,5.70
2022-10-24T08:19:23.054Z,3.55
2022-10-24T08:22:24.622Z,3.30
2022-10-24T08:25:26.305Z,3.40
2022-10-24T08:28:27.941Z,2.72
2022-10-24T08:31:29.629Z,2.90
2022-10-24T08:34:31.291Z,3.38
2022-10-24T08:37:35.285Z,4.65
2022-10-24T08:40:36.849Z,4.95
2022-10-24T08:43:38.425Z,2.60
2022-10-24T08:46:40.033Z,4.05
2022-10-24T08:50:14.033Z,2.67
2022-10-24T08:53:24.396Z,3.33
2022-10-24T08:56:28.714Z,3.15
2022-10-24T08:59:33.298Z,4.05
2022-10-24T09:02:38.148Z,2.92
2022-10-24T09:05:45.702Z,2.92
2022-10-24T09:08:51.022Z,2.90
2022-10-24T09:11:54.620Z,2.88
2022-10-24T09:14:58.375Z,3.90
2022-10-24T09:18:00.109Z,3.30
2022-10-24T09:21:01.916Z,2.92
2022-10-24T09:24:03.670Z,1.90
2022-10-24T09:27:07.652Z,2.35
2022-10-24T09:30:16.022Z,3.00
2022-10-24T09:33:29.460Z,2.30
2022-10-24T09:36:31.096Z,2.25
2022-10-24T09:39:34.609Z,2.70
2022-10-24T09:42:37.989Z,2.47
2022-10-24T09:45:39.672Z,2.80
2022-10-24T09:49:00.102Z,3.83
2022-10-24T09:52:04.746Z,2.30
2022-10-24T09:55:20.021Z,3.23
2022-10-24T09:58:29.777Z,2.40
2022-10-24T10:01:31.401Z,2.30
2022-10-24T10:04:33.324Z,2.57
2022-10-24T10:07:39.040Z,2.37
2022-10-24T10:10:40.681Z,2.80
2022-10-24T10:13:49.938Z,2.93
2022-10-24T10:17:05.605Z,2.90
2022-10-24T10:20:22.110Z,2.83
2022-10-24T10:23:34.326Z,2.90
2022-10-24T10:26:44.006Z,2.93
2022-10-24T10:29:45.585Z,2.83
2022-10-24T10:33:08.865Z,2.80
2022-10-24T10:36:25.093Z,3.17
2022-10-24T10:39:26.647Z,3.17
2022-10-24T10:42:40.169Z,2.97
2022-10-24T10:45:45.579Z,2.80
2022-10-24T10:48:47.233Z,3.57
2022-10-24T10:51:57.864Z,6.90
2022-10-24T10:55:08.928Z,5.07
2022-10-24T10:58:25.848Z,4.00
2022-10-24T11:01:42.378Z,3.20
2022-10-24T11:04:53.897Z,2.77
2022-10-24T11:07:58.486Z,3.10
2022-10-24T11:11:03.074Z,2.97
2022-10-24T11:14:23.575Z,3.47
2022-10-24T11:17:27.975Z,3.63
2022-10-24T11:20:35.394Z,3.40
2022-10-24T11:23:55.057Z,3.43
2022-10-24T11:27:07.083Z,3.60
2022-10-24T11:30:16.228Z,4.33
2022-10-24T11:33:31.437Z,3.73
2022-10-24T11:36:38.838Z,3.27
2022-10-24T11:39:46.097Z,3.00
2022-10-24T11:42:55.535Z,3.10
2022-10-24T11:46:02.172Z,3.70
2022-10-24T11:49:11.829Z,3.20
2022-10-24T11:52:22.808Z,3.63
2022-10-24T11:55:25.729Z,3.60
2022-10-24T11:58:29.383Z,3.40
2022-10-24T12:01:33.788Z,3.43
2022-10-24T12:04:53.913Z,6.97
2022-10-24T12:08:13.999Z,5.43
2022-10-24T12:11:21.495Z,6.03
2022-10-24T12:14:35.783Z,3.30
2022-10-24T12:17:54.674Z,6.70
2022-10-24T12:20:58.415Z,4.87
2022-10-24T12:24:00.525Z,3.93
2022-10-24T12:27:03.743Z,4.33
2022-10-24T12:30:05.486Z,3.73
2022-10-24T12:33:07.061Z,3.70
2022-10-24T12:36:08.988Z,3.90
2022-10-24T12:39:11.481Z,4.10
2022-10-24T12:42:14.946Z,4.27
2022-10-24T12:45:23.930Z,3.53
2022-10-24T12:48:33.056Z,4.27
2022-10-24T12:51:41.296Z,3.50
2022-10-24T12:54:46.045Z,4.10
2022-10-24T12:57:47.880Z,3.77
2022-10-24T13:01:00.469Z,4.00
2022-10-24T13:04:16.539Z,3.97
2022-10-24T13:07:36.338Z,3.80
2022-10-24T13:10:37.992Z,4.13
2022-10-24T13:13:58.429Z,3.97
2022-10-24T13:17:03.067Z,3.80
2022-10-24T13:20:20.251Z,4.00
2022-10-24T13:23:27.186Z,3.93
2022-10-24T13:26:37.843Z,3.70
2022-10-24T13:29:39.352Z,5.23
2022-10-24T13:32:40.878Z,4.10
2022-10-24T13:35:42.470Z,8.60
2022-10-24T13:38:50.666Z,8.60
2022-10-24T13:42:18.367Z,8.60
2022-10-24T13:45:37.010Z,8.67
2022-10-24T13:48:40.205Z,4.13
2022-10-24T13:51:46.627Z,3.60
2022-10-24T13:54:54.310Z,4.03
2022-10-24T13:58:08.084Z,3.80
2022-10-24T14:01:20.978Z,5.63
2022-10-24T14:04:23.673Z,5.00
2022-10-24T14:07:29.868Z,12.33
2022-10-24T14:10:32.086Z,10.47
2022-10-24T14:13:38.868Z,7.97
2022-10-24T14:16:40.554Z,6.67
2022-10-24T14:19:50.624Z,7.63
2022-10-24T14:22:53.748Z,7.50
2022-10-24T14:25:57.353Z,9.33
2022-10-24T14:29:00.935Z,9.90
2022-10-24T14:32:04.075Z,9.50
2022-10-24T14:35:05.764Z,5.53
2022-10-24T14:38:09.854Z,4.43
2022-10-24T14:41:11.761Z,4.40
2022-10-24T14:44:15.644Z,4.30
2022-10-24T14:47:17.483Z,3.77
2022-10-24T14:50:35.586Z,5.20
2022-10-24T14:53:38.290Z,4.80
2022-10-24T14:56:40.095Z,7.30
2022-10-24T14:59:44.243Z,4.40
2022-10-24T15:02:48.053Z,5.53
2022-10-24T15:05:54.158Z,5.97
2022-10-24T15:09:04.971Z,4.27
2022-10-24T15:12:12.153Z,4.70
2022-10-24T15:15:23.547Z,7.10
2022-10-24T15:18:43.782Z,4.87
2022-10-24T15:21:46.213Z,5.90
2022-10-24T15:24:51.113Z,5.13
2022-10-24T15:27:59.345Z,6.87
2022-10-24T15:31:00.963Z,6.80
2022-10-24T15:34:02.683Z,6.13
2022-10-24T15:37:17.188Z,7.27
2022-10-24T15:40:20.963Z,7.90
2022-10-24T15:43:26.955Z,15.13
2022-10-24T15:46:28.942Z,10.03
2022-10-24T15:49:31.526Z,10.63
2022-10-24T15:52:33.273Z,10.23
2022-10-24T15:55:34.880Z,9.17
2022-10-24T15:58:36.441Z,9.10
2022-10-24T16:01:41.490Z,9.77
2022-10-24T16:04:43.201Z,10.00
2022-10-24T16:07:45.237Z,12.40
2022-10-24T16:10:50.791Z,11.13
2022-10-24T16:13:52.588Z,11.77
2022-10-24T16:16:57.185Z,12.50
2022-10-24T16:19:59.032Z,13.07
2022-10-24T16:23:00.781Z,11.73
2022-10-24T16:26:05.613Z,14.47
2022-10-24T16:29:07.483Z,13.37
2022-10-24T16:32:10.219Z,15.07
2022-10-24T16:35:18.848Z,14.67
2022-10-24T16:38:20.431Z,13.43
2022-10-24T16:41:25.739Z,13.93
2022-10-24T16:44:31.791Z,12.47
2022-10-24T16:47:33.492Z,12.83
2022-10-24T16:50:35.184Z,13.10
2022-10-24T16:53:36.738Z,12.93
2022-10-24T16:56:38.353Z,11.67
2022-10-24T16:59:40.250Z,10.30
2022-10-24T17:02:43.202Z,10.33
2022-10-24T17:08:53.445Z,8.27
2022-10-24T17:11:57.026Z,8.67
2022-10-24T17:14:58.760Z,8.70
2022-10-24T17:18:00.417Z,9.20
2022-10-24T17:21:02.344Z,10.03
2022-10-24T17:24:04.105Z,8.60
2022-10-24T17:27:10.150Z,8.23
2022-10-24T17:30:16.216Z,12.00
2022-10-24T17:33:17.905Z,13.00
2022-10-24T17:36:23.639Z,13.00
2022-10-24T17:39:27.148Z,13.00
2022-10-24T17:42:28.945Z,10.83
2022-10-24T17:45:31.289Z,9.63
2022-10-24T17:48:32.966Z,8.60
2022-10-24T17:51:37.511Z,10.03
2022-10-24T17:54:43.460Z,6.37
2022-10-24T17:57:47.914Z,6.40
2022-10-24T18:00:49.963Z,6.03
2022-10-24T18:03:51.573Z,6.53
2022-10-24T18:06:53.626Z,6.60
2022-10-24T18:10:00.514Z,6.20
2022-10-24T18:13:02.247Z,5.30
2022-10-24T18:16:07.816Z,5.57
2022-10-24T18:19:09.466Z,6.23
2022-10-24T18:22:12.046Z,7.80
2022-10-24T18:25:18.710Z,7.10
2022-10-24T18:28:23.570Z,6.40
2022-10-24T18:31:26.695Z,6.97
2022-10-24T18:34:30.395Z,6.50
2022-10-24T18:37:32.518Z,6.13
2022-10-24T18:40:37.467Z,6.60
2022-10-24T18:43:40.170Z,6.23
2022-10-24T18:46:41.906Z,6.47
2022-10-24T18:49:43.690Z,6.10
2022-10-24T18:53:04.097Z,6.83
2022-10-24T18:56:06.130Z,6.57
2022-10-24T18:59:12.454Z,6.57
2022-10-24T19:02:14.211Z,6.27
2022-10-24T19:05:15.897Z,6.07
2022-10-24T19:08:18.964Z,5.77
2022-10-24T19:11:21.175Z,5.80
2022-10-24T19:14:22.813Z,6.43
2022-10-24T19:17:24.518Z,6.77
2022-10-24T19:20:27.002Z,6.63
2022-10-24T19:23:28.578Z,5.57
2022-10-24T19:26:30.228Z,6.10
2022-10-24T19:29:33.160Z,6.30
2022-10-24T19:32:34.879Z,5.83
2022-10-24T19:35:37.473Z,5.50
2022-10-24T19:38:39.023Z,6.30
2022-10-24T19:41:40.725Z,6.60
2022-10-24T19:44:44.479Z,6.53
2022-10-24T19:47:46.854Z,6.30
2022-10-24T19:50:48.987Z,6.23
2022-10-24T19:53:51.256Z,7.07
2022-10-24T19:56:54.272Z,6.17
2022-10-24T19:59:55.883Z,6.63
2022-10-24T20:02:58.715Z,6.10
2022-10-24T20:06:00.343Z,6.10
2022-10-24T20:09:02.543Z,6.30
2022-10-24T20:12:04.689Z,6.60
2022-10-24T20:15:06.578Z,6.37
2022-10-24T20:18:08.123Z,6.63
2022-10-24T20:21:10.567Z,6.37
2022-10-24T20:24:12.218Z,6.57
2022-10-24T20:27:13.808Z,7.33
2022-10-24T20:30:15.422Z,6.30
2022-10-24T20:33:16.993Z,5.97
2022-10-24T20:36:18.791Z,6.60
2022-10-24T20:39:21.096Z,5.10
2022-10-24T20:42:22.925Z,5.30
2022-10-24T20:45:24.561Z,6.00
2022-10-24T20:48:26.103Z,5.27
2022-10-24T20:51:28.108Z,5.40
2022-10-24T20:54:29.662Z,5.77
2022-10-24T20:57:31.248Z,6.27
2022-10-24T21:00:33.064Z,5.40
2022-10-24T21:03:35.570Z,6.77
2022-10-24T21:06:37.229Z,5.93
2022-10-24T21:09:38.829Z,5.50
2022-10-24T21:12:43.887Z,5.27
2022-10-24T21:15:48.590Z,5.77
2022-10-24T21:18:50.192Z,6.00
2022-10-24T21:21:51.761Z,6.03
2022-10-24T21:24:53.313Z,6.20
2022-10-24T21:27:54.928Z,5.90
2022-10-24T21:30:56.505Z,6.57
2022-10-24T21:33:58.145Z,6.47
2022-10-24T21:36:59.776Z,8.37
2022-10-24T21:40:01.419Z,5.97
2022-10-24T21:43:03.116Z,5.87
2022-10-24T21:46:14.897Z,6.10
2022-10-24T21:49:16.501Z,5.97
2022-10-24T21:52:18.122Z,6.00
2022-10-24T21:55:19.717Z,6.50
2022-10-24T21:58:21.263Z,6.27
2022-10-24T22:01:25.941Z,6.10
2022-10-24T22:04:27.686Z,6.47
2022-10-24T22:07:29.216Z,5.70
2022-10-24T22:10:30.831Z,5.77
2022-10-24T22:13:33.537Z,5.60
2022-10-24T22:16:35.144Z,6.17
2022-10-24T22:19:36.690Z,7.27
2022-10-24T22:22:38.302Z,6.93
2022-10-24T22:25:40.121Z,6.27
2022-10-24T22:28:41.751Z,7.37
2022-10-24T22:31:43.974Z,6.47
2022-10-24T22:34:45.650Z,6.87
2022-10-24T22:37:47.278Z,7.13
2022-10-24T22:40:48.992Z,7.67
2022-10-24T22:43:50.714Z,7.10
2022-10-24T22:47:11.633Z,6.80
2022-10-24T22:50:13.241Z,7.00
2022-10-24T22:53:16.342Z,6.80
2022-10-24T22:56:19.501Z,6.67
2022-10-24T22:59:21.169Z,6.90
2022-10-24T23:02:33.692Z,7.03
2022-10-24T23:05:44.799Z,7.20
2022-10-24T23:08:46.466Z,6.77
2022-10-24T23:11:48.191Z,6.60
2022-10-24T23:14:50.305Z,6.90
2022-10-24T23:17:52.058Z,6.90
2022-10-24T23:20:57.829Z,6.10
2022-10-24T23:23:59.549Z,7.00
2022-10-24T23:27:13.132Z,5.97
2022-10-24T23:30:16.365Z,6.17
2022-10-24T23:33:27.628Z,6.20
2022-10-24T23:36:30.146Z,7.03
2022-10-24T23:39:32.979Z,6.77
2022-10-24T23:42:34.734Z,6.10
2022-10-24T23:45:37.127Z,6.47
2022-10-24T23:48:38.816Z,6.83
2022-10-24T23:51:42.434Z,5.90
2022-10-24T23:54:44.200Z,6.43
2022-10-24T23:57:46.062Z,6.67
